sensor_id;sensor_type;location;lat;lon;timestamp;P1;durP1;ratioP1;P2;durP2;ratioP2
16522;SDS011;19889;52.546;13.348;2023-07-31T00:02:14;2.25;;;1.48;;
16522;SDS011;19889;52.546;13.348;2023-07-31T00:04:41;2.70;;;1.48;;
16522;SDS011;19889;52.546;13.348;2023-07-31T00:07:08;4.25;;;1.10;;
16522;SDS011;19889;52.546;13.348;2023-07-31T00:09:36;2.90;;;1.42;;
16522;SDS011;19889;52.546;13.348;2023-07-31T00:12:03;5.50;;;1.52;;
16522;SDS011;19889;52.546;13.348;2023-07-31T00:14:32;3.25;;;1.58;;
16522;SDS011;19889;52.546;13.348;2023-07-31T00:16:59;3.17;;;1.08;;
16522;SDS011;19889;52.546;13.348;2023-07-31T00:19:26;2.85;;;1.40;;
16522;SDS011;19889;52.546;13.348;2023-07-31T00:21:53;1.88;;;1.20;;
16522;SDS011;19889;52.546;13.348;2023-07-31T00:24:21;4.13;;;1.10;;
16522;SDS011;19889;52.546;13.348;2023-07-31T00:26:48;3.05;;;1.20;;
16522;SDS011;19889;52.546;13.348;2023-07-31T00:29:15;2.78;;;1.23;;
16522;SDS011;19889;52.546;13.348;2023-07-31T00:31:43;2.05;;;1.20;;
16522;SDS011;19889;52.546;13.348;2023-07-31T00:34:10;2.13;;;1.20;;
16522;SDS011;19889;52.546;13.348;2023-07-31T00:36:37;2.22;;;1.10;;
16522;SDS011;19889;52.546;13.348;2023-07-31T00:39:05;3.92;;;1.40;;
16522;SDS011;19889;52.546;13.348;2023-07-31T00:41:32;2.40;;;1.40;;
16522;SDS011;19889;52.546;13.348;2023-07-31T00:44:00;3.13;;;1.85;;
16522;SDS011;19889;52.546;13.348;2023-07-31T00:46:27;2.00;;;1.20;;
16522;SDS011;19889;52.546;13.348;2023-07-31T00:48:56;3.55;;;1.40;;
16522;SDS011;19889;52.546;13.348;2023-07-31T00:51:24;2.05;;;1.08;;
16522;SDS011;19889;52.546;13.348;2023-07-31T00:53:51;2.15;;;1.25;;
16522;SDS011;19889;52.546;13.348;2023-07-31T00:56:23;1.83;;;1.15;;
16522;SDS011;19889;52.546;13.348;2023-07-31T00:58:56;4.70;;;1.15;;
16522;SDS011;19889;52.546;13.348;2023-07-31T01:01:23;2.08;;;1.20;;
16522;SDS011;19889;52.546;13.348;2023-07-31T01:03:50;2.20;;;1.08;;
16522;SDS011;19889;52.546;13.348;2023-07-31T01:06:22;1.95;;;1.17;;
16522;SDS011;19889;52.546;13.348;2023-07-31T01:09:07;2.65;;;1.25;;
16522;SDS011;19889;52.546;13.348;2023-07-31T01:11:43;2.22;;;1.35;;
16522;SDS011;19889;52.546;13.348;2023-07-31T01:14:15;2.80;;;1.30;;
16522;SDS011;19889;52.546;13.348;2023-07-31T01:16:42;3.13;;;1.95;;
16522;SDS011;19889;52.546;13.348;2023-07-31T01:19:11;4.28;;;1.95;;
16522;SDS011;19889;52.546;13.348;2023-07-31T01:21:56;3.33;;;1.60;;
16522;SDS011;19889;52.546;13.348;2023-07-31T01:24:42;2.10;;;1.40;;
16522;SDS011;19889;52.546;13.348;2023-07-31T01:27:23;2.58;;;1.40;;
16522;SDS011;19889;52.546;13.348;2023-07-31T01:29:56;1.90;;;1.23;;
16522;SDS011;19889;52.546;13.348;2023-07-31T01:32:35;1.85;;;1.70;;
16522;SDS011;19889;52.546;13.348;2023-07-31T01:35:06;1.75;;;1.40;;
16522;SDS011;19889;52.546;13.348;2023-07-31T01:37:34;2.53;;;1.70;;
16522;SDS011;19889;52.546;13.348;2023-07-31T01:40:03;3.90;;;1.50;;
16522;SDS011;19889;52.546;13.348;2023-07-31T01:42:32;2.53;;;1.40;;
16522;SDS011;19889;52.546;13.348;2023-07-31T01:44:59;3.90;;;1.55;;
16522;SDS011;19889;52.546;13.348;2023-07-31T01:47:27;2.53;;;1.45;;
16522;SDS011;19889;52.546;13.348;2023-07-31T01:49:54;2.92;;;1.50;;
16522;SDS011;19889;52.546;13.348;2023-07-31T01:52:22;2.28;;;1.42;;
16522;SDS011;19889;52.546;13.348;2023-07-31T01:54:49;2.50;;;1.60;;
16522;SDS011;19889;52.546;13.348;2023-07-31T01:57:16;2.00;;;1.30;;
16522;SDS011;19889;52.546;13.348;2023-07-31T01:59:45;3.13;;;1.70;;
16522;SDS011;19889;52.546;13.348;2023-07-31T02:02:12;3.25;;;1.50;;
16522;SDS011;19889;52.546;13.348;2023-07-31T02:04:39;1.98;;;1.42;;
16522;SDS011;19889;52.546;13.348;2023-07-31T02:07:07;3.28;;;1.50;;
16522;SDS011;19889;52.546;13.348;2023-07-31T02:09:34;3.80;;;1.40;;
16522;SDS011;19889;52.546;13.348;2023-07-31T02:12:01;2.72;;;1.40;;
16522;SDS011;19889;52.546;13.348;2023-07-31T02:14:29;1.65;;;1.30;;
16522;SDS011;19889;52.546;13.348;2023-07-31T02:16:57;5.65;;;1.75;;
16522;SDS011;19889;52.546;13.348;2023-07-31T02:19:24;1.75;;;1.50;;
16522;SDS011;19889;52.546;13.348;2023-07-31T02:21:52;2.60;;;1.40;;
16522;SDS011;19889;52.546;13.348;2023-07-31T02:24:19;3.13;;;2.13;;
16522;SDS011;19889;52.546;13.348;2023-07-31T02:26:46;1.27;;;1.13;;
16522;SDS011;19889;52.546;13.348;2023-07-31T02:29:13;2.50;;;1.67;;
16522;SDS011;19889;52.546;13.348;2023-07-31T02:31:40;76.97;;;10.18;;
16522;SDS011;19889;52.546;13.348;2023-07-31T02:34:09;39.88;;;6.05;;
16522;SDS011;19889;52.546;13.348;2023-07-31T02:36:36;7.90;;;2.15;;
16522;SDS011;19889;52.546;13.348;2023-07-31T02:39:03;4.20;;;1.67;;
16522;SDS011;19889;52.546;13.348;2023-07-31T02:41:30;4.10;;;2.08;;
16522;SDS011;19889;52.546;13.348;2023-07-31T02:43:57;2.55;;;1.75;;
16522;SDS011;19889;52.546;13.348;2023-07-31T02:46:26;3.25;;;1.88;;
16522;SDS011;19889;52.546;13.348;2023-07-31T02:48:54;3.95;;;1.65;;
16522;SDS011;19889;52.546;13.348;2023-07-31T02:51:22;3.22;;;1.80;;
16522;SDS011;19889;52.546;13.348;2023-07-31T02:53:49;3.38;;;1.67;;
16522;SDS011;19889;52.546;13.348;2023-07-31T02:56:16;3.80;;;1.60;;
16522;SDS011;19889;52.546;13.348;2023-07-31T02:59:08;3.42;;;1.52;;
16522;SDS011;19889;52.546;13.348;2023-07-31T03:01:35;3.28;;;1.80;;
16522;SDS011;19889;52.546;13.348;2023-07-31T03:04:02;3.13;;;1.52;;
16522;SDS011;19889;52.546;13.348;2023-07-31T03:06:31;3.38;;;2.22;;
16522;SDS011;19889;52.546;13.348;2023-07-31T03:08:59;2.75;;;1.75;;
16522;SDS011;19889;52.546;13.348;2023-07-31T03:11:27;3.13;;;1.88;;
16522;SDS011;19889;52.546;13.348;2023-07-31T03:13:55;2.13;;;1.83;;
16522;SDS011;19889;52.546;13.348;2023-07-31T03:16:22;4.35;;;1.88;;
16522;SDS011;19889;52.546;13.348;2023-07-31T03:18:49;4.05;;;2.17;;
16522;SDS011;19889;52.546;13.348;2023-07-31T03:21:16;2.53;;;2.00;;
16522;SDS011;19889;52.546;13.348;2023-07-31T03:23:45;3.60;;;1.92;;
16522;SDS011;19889;52.546;13.348;2023-07-31T03:26:12;4.18;;;2.50;;
16522;SDS011;19889;52.546;13.348;2023-07-31T03:28:39;4.10;;;2.55;;
16522;SDS011;19889;52.546;13.348;2023-07-31T03:31:07;4.15;;;2.60;;
16522;SDS011;19889;52.546;13.348;2023-07-31T03:33:35;4.50;;;2.10;;
16522;SDS011;19889;52.546;13.348;2023-07-31T03:36:02;4.72;;;2.33;;
16522;SDS011;19889;52.546;13.348;2023-07-31T03:38:30;2.65;;;2.05;;
16522;SDS011;19889;52.546;13.348;2023-07-31T03:40:58;3.60;;;2.05;;
16522;SDS011;19889;52.546;13.348;2023-07-31T03:43:25;8.57;;;2.95;;
16522;SDS011;19889;52.546;13.348;2023-07-31T03:45:53;3.92;;;3.03;;
16522;SDS011;19889;52.546;13.348;2023-07-31T03:48:20;4.75;;;2.50;;
16522;SDS011;19889;52.546;13.348;2023-07-31T03:50:47;3.50;;;2.28;;
16522;SDS011;19889;52.546;13.348;2023-07-31T03:53:15;4.28;;;2.45;;
16522;SDS011;19889;52.546;13.348;2023-07-31T03:55:42;6.28;;;2.58;;
16522;SDS011;19889;52.546;13.348;2023-07-31T03:58:11;5.63;;;2.33;;
16522;SDS011;19889;52.546;13.348;2023-07-31T04:00:39;3.03;;;2.15;;
16522;SDS011;19889;52.546;13.348;2023-07-31T04:03:07;4.30;;;2.47;;
16522;SDS011;19889;52.546;13.348;2023-07-31T04:05:37;4.25;;;2.55;;
16522;SDS011;19889;52.546;13.348;2023-07-31T04:08:05;5.03;;;2.60;;
16522;SDS011;19889;52.546;13.348;2023-07-31T04:10:32;5.93;;;2.60;;
16522;SDS011;19889;52.546;13.348;2023-07-31T04:12:59;3.45;;;2.33;;
16522;SDS011;19889;52.546;13.348;2023-07-31T04:15:28;4.10;;;2.47;;
16522;SDS011;19889;52.546;13.348;2023-07-31T04:17:55;3.78;;;2.28;;
16522;SDS011;19889;52.546;13.348;2023-07-31T04:20:22;4.03;;;2.58;;
16522;SDS011;19889;52.546;13.348;2023-07-31T04:22:49;3.47;;;2.40;;
16522;SDS011;19889;52.546;13.348;2023-07-31T04:25:16;4.45;;;2.33;;
16522;SDS011;19889;52.546;13.348;2023-07-31T04:27:44;5.32;;;2.38;;
16522;SDS011;19889;52.546;13.348;2023-07-31T04:30:11;4.95;;;2.65;;
16522;SDS011;19889;52.546;13.348;2023-07-31T04:32:39;4.82;;;2.85;;
16522;SDS011;19889;52.546;13.348;2023-07-31T04:35:07;3.53;;;2.25;;
16522;SDS011;19889;52.546;13.348;2023-07-31T04:37:34;3.72;;;2.22;;
16522;SDS011;19889;52.546;13.348;2023-07-31T04:40:01;6.65;;;2.78;;
16522;SDS011;19889;52.546;13.348;2023-07-31T04:42:28;2.33;;;2.00;;
16522;SDS011;19889;52.546;13.348;2023-07-31T04:44:55;2.75;;;2.40;;
16522;SDS011;19889;52.546;13.348;2023-07-31T04:47:23;3.28;;;2.97;;
16522;SDS011;19889;52.546;13.348;2023-07-31T04:49:51;3.03;;;2.40;;
16522;SDS011;19889;52.546;13.348;2023-07-31T04:52:18;3.67;;;2.33;;
16522;SDS011;19889;52.546;13.348;2023-07-31T04:54:45;3.13;;;2.33;;
16522;SDS011;19889;52.546;13.348;2023-07-31T04:57:12;3.88;;;2.67;;
16522;SDS011;19889;52.546;13.348;2023-07-31T04:59:40;3.80;;;2.58;;
16522;SDS011;19889;52.546;13.348;2023-07-31T05:02:08;4.07;;;2.40;;
16522;SDS011;19889;52.546;13.348;2023-07-31T05:04:35;3.65;;;2.30;;
16522;SDS011;19889;52.546;13.348;2023-07-31T05:07:04;4.07;;;2.58;;
16522;SDS011;19889;52.546;13.348;2023-07-31T05:09:31;7.50;;;2.60;;
16522;SDS011;19889;52.546;13.348;2023-07-31T05:11:58;3.75;;;2.53;;
16522;SDS011;19889;52.546;13.348;2023-07-31T05:14:26;3.58;;;2.35;;
16522;SDS011;19889;52.546;13.348;2023-07-31T05:16:53;5.13;;;2.70;;
16522;SDS011;19889;52.546;13.348;2023-07-31T05:19:20;6.53;;;2.53;;
16522;SDS011;19889;52.546;13.348;2023-07-31T05:21:47;4.22;;;2.35;;
16522;SDS011;19889;52.546;13.348;2023-07-31T05:24:16;5.93;;;2.72;;
16522;SDS011;19889;52.546;13.348;2023-07-31T05:26:43;2.85;;;2.35;;
16522;SDS011;19889;52.546;13.348;2023-07-31T05:29:10;3.60;;;2.38;;
16522;SDS011;19889;52.546;13.348;2023-07-31T05:31:37;3.90;;;2.33;;
16522;SDS011;19889;52.546;13.348;2023-07-31T05:34:04;4.80;;;3.15;;
16522;SDS011;19889;52.546;13.348;2023-07-31T05:36:31;3.08;;;2.53;;
16522;SDS011;19889;52.546;13.348;2023-07-31T05:38:58;3.88;;;2.55;;
16522;SDS011;19889;52.546;13.348;2023-07-31T05:41:32;4.32;;;2.47;;
16522;SDS011;19889;52.546;13.348;2023-07-31T05:44:00;3.30;;;2.50;;
16522;SDS011;19889;52.546;13.348;2023-07-31T05:46:27;4.65;;;2.63;;
16522;SDS011;19889;52.546;13.348;2023-07-31T05:48:54;4.43;;;2.20;;
16522;SDS011;19889;52.546;13.348;2023-07-31T05:51:21;3.85;;;2.70;;
16522;SDS011;19889;52.546;13.348;2023-07-31T05:53:48;3.70;;;2.50;;
16522;SDS011;19889;52.546;13.348;2023-07-31T05:56:15;3.38;;;2.67;;
16522;SDS011;19889;52.546;13.348;2023-07-31T05:58:44;3.80;;;2.30;;
16522;SDS011;19889;52.546;13.348;2023-07-31T06:01:12;5.85;;;2.33;;
16522;SDS011;19889;52.546;13.348;2023-07-31T06:03:39;5.55;;;2.42;;
16522;SDS011;19889;52.546;13.348;2023-07-31T06:06:06;10.25;;;6.25;;
16522;SDS011;19889;52.546;13.348;2023-07-31T06:08:33;3.20;;;2.50;;
16522;SDS011;19889;52.546;13.348;2023-07-31T06:11:00;5.50;;;2.33;;
16522;SDS011;19889;52.546;13.348;2023-07-31T06:13:28;2.70;;;2.00;;
16522;SDS011;19889;52.546;13.348;2023-07-31T06:15:56;5.00;;;2.33;;
16522;SDS011;19889;52.546;13.348;2023-07-31T06:18:24;5.63;;;2.17;;
16522;SDS011;19889;52.546;13.348;2023-07-31T06:20:51;3.50;;;2.08;;
16522;SDS011;19889;52.546;13.348;2023-07-31T06:23:19;3.63;;;1.88;;
16522;SDS011;19889;52.546;13.348;2023-07-31T06:25:46;3.33;;;1.90;;
16522;SDS011;19889;52.546;13.348;2023-07-31T06:28:13;2.63;;;2.30;;
16522;SDS011;19889;52.546;13.348;2023-07-31T06:30:40;5.00;;;2.60;;
16522;SDS011;19889;52.546;13.348;2023-07-31T06:33:09;6.50;;;2.15;;
16522;SDS011;19889;52.546;13.348;2023-07-31T06:35:36;5.10;;;2.08;;
16522;SDS011;19889;52.546;13.348;2023-07-31T06:38:04;2.35;;;2.15;;
16522;SDS011;19889;52.546;13.348;2023-07-31T06:40:31;7.22;;;2.40;;
16522;SDS011;19889;52.546;13.348;2023-07-31T06:42:58;4.63;;;2.97;;
16522;SDS011;19889;52.546;13.348;2023-07-31T06:45:31;3.60;;;2.00;;
16522;SDS011;19889;52.546;13.348;2023-07-31T06:47:59;4.40;;;2.40;;
16522;SDS011;19889;52.546;13.348;2023-07-31T06:50:28;3.47;;;2.08;;
16522;SDS011;19889;52.546;13.348;2023-07-31T06:52:55;6.57;;;2.22;;
16522;SDS011;19889;52.546;13.348;2023-07-31T06:55:22;3.65;;;2.50;;
16522;SDS011;19889;52.546;13.348;2023-07-31T06:57:51;6.18;;;2.50;;
16522;SDS011;19889;52.546;13.348;2023-07-31T07:00:21;7.07;;;2.90;;
16522;SDS011;19889;52.546;13.348;2023-07-31T07:02:49;3.55;;;2.17;;
16522;SDS011;19889;52.546;13.348;2023-07-31T07:05:17;4.65;;;2.85;;
16522;SDS011;19889;52.546;13.348;2023-07-31T07:07:45;6.10;;;3.20;;
16522;SDS011;19889;52.546;13.348;2023-07-31T07:10:13;7.97;;;4.70;;
16522;SDS011;19889;52.546;13.348;2023-07-31T07:12:40;6.88;;;4.53;;
16522;SDS011;19889;52.546;13.348;2023-07-31T07:15:07;8.23;;;5.00;;
16522;SDS011;19889;52.546;13.348;2023-07-31T07:17:35;7.95;;;5.03;;
16522;SDS011;19889;52.546;13.348;2023-07-31T07:20:03;5.88;;;4.10;;
16522;SDS011;19889;52.546;13.348;2023-07-31T07:22:30;6.75;;;4.80;;
16522;SDS011;19889;52.546;13.348;2023-07-31T07:24:59;9.45;;;6.00;;
16522;SDS011;19889;52.546;13.348;2023-07-31T07:27:26;10.40;;;6.20;;
16522;SDS011;19889;52.546;13.348;2023-07-31T07:29:53;8.75;;;5.38;;
16522;SDS011;19889;52.546;13.348;2023-07-31T07:32:20;9.43;;;5.55;;
16522;SDS011;19889;52.546;13.348;2023-07-31T07:34:48;6.90;;;3.92;;
16522;SDS011;19889;52.546;13.348;2023-07-31T07:37:15;5.13;;;3.05;;
16522;SDS011;19889;52.546;13.348;2023-07-31T07:39:43;5.78;;;2.92;;
16522;SDS011;19889;52.546;13.348;2023-07-31T07:42:11;2.75;;;2.20;;
16522;SDS011;19889;52.546;13.348;2023-07-31T07:44:38;7.32;;;5.10;;
16522;SDS011;19889;52.546;13.348;2023-07-31T07:47:06;5.03;;;2.30;;
16522;SDS011;19889;52.546;13.348;2023-07-31T07:49:39;4.53;;;2.08;;
16522;SDS011;19889;52.546;13.348;2023-07-31T07:52:06;6.38;;;2.00;;
16522;SDS011;19889;52.546;13.348;2023-07-31T07:54:33;3.58;;;2.08;;
16522;SDS011;19889;52.546;13.348;2023-07-31T07:57:00;4.45;;;3.33;;
16522;SDS011;19889;52.546;13.348;2023-07-31T07:59:29;7.15;;;5.20;;
16522;SDS011;19889;52.546;13.348;2023-07-31T08:01:57;6.30;;;4.05;;
16522;SDS011;19889;52.546;13.348;2023-07-31T08:04:24;10.93;;;6.97;;
16522;SDS011;19889;52.546;13.348;2023-07-31T08:06:51;5.25;;;3.30;;
16522;SDS011;19889;52.546;13.348;2023-07-31T08:09:18;4.13;;;3.50;;
16522;SDS011;19889;52.546;13.348;2023-07-31T08:11:45;6.75;;;2.78;;
16522;SDS011;19889;52.546;13.348;2023-07-31T08:14:13;3.85;;;2.97;;
16522;SDS011;19889;52.546;13.348;2023-07-31T08:16:42;4.28;;;3.33;;
16522;SDS011;19889;52.546;13.348;2023-07-31T08:19:09;6.90;;;3.15;;
16522;SDS011;19889;52.546;13.348;2023-07-31T08:21:36;5.10;;;2.90;;
16522;SDS011;19889;52.546;13.348;2023-07-31T08:24:03;3.17;;;1.95;;
16522;SDS011;19889;52.546;13.348;2023-07-31T08:26:31;5.70;;;2.25;;
16522;SDS011;19889;52.546;13.348;2023-07-31T08:28:58;3.20;;;2.00;;
16522;SDS011;19889;52.546;13.348;2023-07-31T08:31:25;2.45;;;1.67;;
16522;SDS011;19889;52.546;13.348;2023-07-31T08:33:55;2.92;;;2.63;;
16522;SDS011;19889;52.546;13.348;2023-07-31T08:36:23;3.72;;;1.67;;
16522;SDS011;19889;52.546;13.348;2023-07-31T08:38:50;2.28;;;2.08;;
16522;SDS011;19889;52.546;13.348;2023-07-31T08:41:17;3.53;;;2.17;;
16522;SDS011;19889;52.546;13.348;2023-07-31T08:43:45;2.95;;;2.25;;
16522;SDS011;19889;52.546;13.348;2023-07-31T08:46:12;4.50;;;1.70;;
16522;SDS011;19889;52.546;13.348;2023-07-31T08:48:41;2.08;;;1.73;;
16522;SDS011;19889;52.546;13.348;2023-07-31T08:51:10;4.55;;;2.20;;
16522;SDS011;19889;52.546;13.348;2023-07-31T08:53:38;4.07;;;2.35;;
16522;SDS011;19889;52.546;13.348;2023-07-31T08:56:05;3.17;;;1.65;;
16522;SDS011;19889;52.546;13.348;2023-07-31T08:58:33;2.28;;;2.05;;
16522;SDS011;19889;52.546;13.348;2023-07-31T09:01:04;7.13;;;4.95;;
16522;SDS011;19889;52.546;13.348;2023-07-31T09:03:33;3.78;;;2.00;;
16522;SDS011;19889;52.546;13.348;2023-07-31T09:06:00;5.50;;;2.50;;
16522;SDS011;19889;52.546;13.348;2023-07-31T09:08:32;3.22;;;2.60;;
16522;SDS011;19889;52.546;13.348;2023-07-31T09:11:00;3.38;;;2.10;;
16522;SDS011;19889;52.546;13.348;2023-07-31T09:13:29;6.65;;;2.50;;
16522;SDS011;19889;52.546;13.348;2023-07-31T09:15:57;4.13;;;2.30;;
16522;SDS011;19889;52.546;13.348;2023-07-31T09:18:25;2.10;;;1.77;;
16522;SDS011;19889;52.546;13.348;2023-07-31T09:21:02;2.30;;;1.50;;
16522;SDS011;19889;52.546;13.348;2023-07-31T09:23:44;2.85;;;1.90;;
16522;SDS011;19889;52.546;13.348;2023-07-31T09:26:14;1.75;;;1.50;;
16522;SDS011;19889;52.546;13.348;2023-07-31T09:28:55;2.22;;;1.60;;
16522;SDS011;19889;52.546;13.348;2023-07-31T09:31:31;3.10;;;1.77;;
16522;SDS011;19889;52.546;13.348;2023-07-31T09:33:59;1.95;;;1.52;;
16522;SDS011;19889;52.546;13.348;2023-07-31T09:36:28;2.40;;;1.83;;
16522;SDS011;19889;52.546;13.348;2023-07-31T09:38:59;2.92;;;1.30;;
16522;SDS011;19889;52.546;13.348;2023-07-31T09:41:29;3.38;;;1.35;;
16522;SDS011;19889;52.546;13.348;2023-07-31T09:43:56;1.48;;;1.20;;
16522;SDS011;19889;52.546;13.348;2023-07-31T09:46:24;1.33;;;1.23;;
16522;SDS011;19889;52.546;13.348;2023-07-31T09:49:02;1.55;;;1.45;;
16522;SDS011;19889;52.546;13.348;2023-07-31T09:51:31;1.73;;;1.35;;
16522;SDS011;19889;52.546;13.348;2023-07-31T09:54:05;3.00;;;1.42;;
16522;SDS011;19889;52.546;13.348;2023-07-31T09:56:38;1.30;;;1.20;;
16522;SDS011;19889;52.546;13.348;2023-07-31T09:59:10;1.98;;;1.20;;
16522;SDS011;19889;52.546;13.348;2023-07-31T10:01:39;2.13;;;1.90;;
16522;SDS011;19889;52.546;13.348;2023-07-31T10:04:07;2.97;;;2.67;;
16522;SDS011;19889;52.546;13.348;2023-07-31T10:06:36;3.40;;;1.85;;
16522;SDS011;19889;52.546;13.348;2023-07-31T10:09:06;1.65;;;1.55;;
16522;SDS011;19889;52.546;13.348;2023-07-31T10:11:37;1.40;;;1.30;;
16522;SDS011;19889;52.546;13.348;2023-07-31T10:14:09;4.72;;;1.80;;
16522;SDS011;19889;52.546;13.348;2023-07-31T10:16:37;2.03;;;1.50;;
16522;SDS011;19889;52.546;13.348;2023-07-31T10:19:06;3.38;;;2.45;;
16522;SDS011;19889;52.546;13.348;2023-07-31T10:21:34;3.20;;;2.90;;
16522;SDS011;19889;52.546;13.348;2023-07-31T10:24:04;2.63;;;2.30;;
16522;SDS011;19889;52.546;13.348;2023-07-31T10:26:33;4.72;;;2.50;;
16522;SDS011;19889;52.546;13.348;2023-07-31T10:29:04;3.95;;;2.42;;
16522;SDS011;19889;52.546;13.348;2023-07-31T10:31:32;5.90;;;2.80;;
16522;SDS011;19889;52.546;13.348;2023-07-31T10:34:00;3.10;;;2.42;;
16522;SDS011;19889;52.546;13.348;2023-07-31T10:36:28;5.88;;;3.50;;
16522;SDS011;19889;52.546;13.348;2023-07-31T10:38:55;4.43;;;3.03;;
16522;SDS011;19889;52.546;13.348;2023-07-31T10:41:29;6.20;;;3.40;;
16522;SDS011;19889;52.546;13.348;2023-07-31T10:43:57;6.00;;;3.20;;
16522;SDS011;19889;52.546;13.348;2023-07-31T10:46:25;4.57;;;3.10;;
16522;SDS011;19889;52.546;13.348;2023-07-31T10:48:57;6.63;;;5.03;;
16522;SDS011;19889;52.546;13.348;2023-07-31T10:51:26;3.47;;;3.17;;
16522;SDS011;19889;52.546;13.348;2023-07-31T10:54:10;7.15;;;4.20;;
16522;SDS011;19889;52.546;13.348;2023-07-31T10:56:39;5.35;;;2.97;;
16522;SDS011;19889;52.546;13.348;2023-07-31T10:59:06;5.93;;;3.70;;
16522;SDS011;19889;52.546;13.348;2023-07-31T11:04:17;5.35;;;3.10;;
16522;SDS011;19889;52.546;13.348;2023-07-31T11:06:55;3.13;;;2.67;;
16522;SDS011;19889;52.546;13.348;2023-07-31T11:09:24;4.18;;;2.97;;
16522;SDS011;19889;52.546;13.348;2023-07-31T11:11:56;7.32;;;4.18;;
16522;SDS011;19889;52.546;13.348;2023-07-31T11:14:23;6.40;;;3.47;;
16522;SDS011;19889;52.546;13.348;2023-07-31T11:16:50;6.25;;;3.67;;
16522;SDS011;19889;52.546;13.348;2023-07-31T11:19:21;5.57;;;3.28;;
16522;SDS011;19889;52.546;13.348;2023-07-31T11:21:49;4.90;;;2.97;;
16522;SDS011;19889;52.546;13.348;2023-07-31T11:24:18;8.02;;;3.38;;
16522;SDS011;19889;52.546;13.348;2023-07-31T11:26:49;4.45;;;2.95;;
16522;SDS011;19889;52.546;13.348;2023-07-31T11:29:19;5.68;;;3.05;;
16522;SDS011;19889;52.546;13.348;2023-07-31T11:31:47;4.03;;;3.10;;
16522;SDS011;19889;52.546;13.348;2023-07-31T11:34:15;7.55;;;2.75;;
16522;SDS011;19889;52.546;13.348;2023-07-31T11:36:52;5.40;;;3.15;;
16522;SDS011;19889;52.546;13.348;2023-07-31T11:39:20;6.28;;;2.58;;
16522;SDS011;19889;52.546;13.348;2023-07-31T11:41:48;3.88;;;2.78;;
16522;SDS011;19889;52.546;13.348;2023-07-31T11:44:15;6.07;;;4.28;;
16522;SDS011;19889;52.546;13.348;2023-07-31T11:46:44;5.00;;;3.45;;
16522;SDS011;19889;52.546;13.348;2023-07-31T11:49:12;6.45;;;3.20;;
16522;SDS011;19889;52.546;13.348;2023-07-31T11:51:39;4.85;;;2.38;;
16522;SDS011;19889;52.546;13.348;2023-07-31T11:54:06;6.18;;;3.80;;
16522;SDS011;19889;52.546;13.348;2023-07-31T11:56:34;4.53;;;2.80;;
16522;SDS011;19889;52.546;13.348;2023-07-31T11:59:01;3.10;;;2.80;;
16522;SDS011;19889;52.546;13.348;2023-07-31T12:01:31;5.22;;;3.17;;
16522;SDS011;19889;52.546;13.348;2023-07-31T12:04:00;3.88;;;2.40;;
16522;SDS011;19889;52.546;13.348;2023-07-31T12:06:34;5.00;;;2.70;;
16522;SDS011;19889;52.546;13.348;2023-07-31T12:09:02;3.70;;;2.58;;
16522;SDS011;19889;52.546;13.348;2023-07-31T12:11:30;5.15;;;2.58;;
16522;SDS011;19889;52.546;13.348;2023-07-31T12:13:58;7.35;;;2.85;;
16522;SDS011;19889;52.546;13.348;2023-07-31T12:16:26;8.05;;;3.63;;
16522;SDS011;19889;52.546;13.348;2023-07-31T12:18:54;4.65;;;3.35;;
16522;SDS011;19889;52.546;13.348;2023-07-31T12:21:23;4.18;;;3.20;;
16522;SDS011;19889;52.546;13.348;2023-07-31T12:23:53;4.57;;;2.83;;
16522;SDS011;19889;52.546;13.348;2023-07-31T12:26:21;5.53;;;2.83;;
16522;SDS011;19889;52.546;13.348;2023-07-31T12:28:50;5.38;;;2.83;;
16522;SDS011;19889;52.546;13.348;2023-07-31T12:31:21;4.88;;;2.80;;
16522;SDS011;19889;52.546;13.348;2023-07-31T12:33:49;5.82;;;3.25;;
16522;SDS011;19889;52.546;13.348;2023-07-31T12:36:18;3.08;;;2.10;;
16522;SDS011;19889;52.546;13.348;2023-07-31T12:38:48;3.10;;;2.47;;
16522;SDS011;19889;52.546;13.348;2023-07-31T12:41:17;2.95;;;2.70;;
16522;SDS011;19889;52.546;13.348;2023-07-31T12:43:44;2.75;;;2.50;;
16522;SDS011;19889;52.546;13.348;2023-07-31T12:46:12;3.80;;;2.35;;
16522;SDS011;19889;52.546;13.348;2023-07-31T12:48:40;3.20;;;2.25;;
16522;SDS011;19889;52.546;13.348;2023-07-31T12:51:07;4.70;;;2.95;;
16522;SDS011;19889;52.546;13.348;2023-07-31T12:53:36;5.20;;;2.70;;
16522;SDS011;19889;52.546;13.348;2023-07-31T12:56:04;3.00;;;2.28;;
16522;SDS011;19889;52.546;13.348;2023-07-31T12:58:32;4.53;;;3.47;;
16522;SDS011;19889;52.546;13.348;2023-07-31T13:00:59;7.07;;;4.68;;
16522;SDS011;19889;52.546;13.348;2023-07-31T13:03:27;5.75;;;3.03;;
16522;SDS011;19889;52.546;13.348;2023-07-31T13:05:55;2.65;;;2.45;;
16522;SDS011;19889;52.546;13.348;2023-07-31T13:08:22;2.33;;;1.98;;
16522;SDS011;19889;52.546;13.348;2023-07-31T13:10:51;3.88;;;2.05;;
16522;SDS011;19889;52.546;13.348;2023-07-31T13:13:20;3.17;;;2.25;;
16522;SDS011;19889;52.546;13.348;2023-07-31T13:15:47;4.57;;;2.47;;
16522;SDS011;19889;52.546;13.348;2023-07-31T13:18:14;3.80;;;2.22;;
16522;SDS011;19889;52.546;13.348;2023-07-31T13:20:41;4.78;;;2.13;;
16522;SDS011;19889;52.546;13.348;2023-07-31T13:23:09;4.88;;;2.10;;
16522;SDS011;19889;52.546;13.348;2023-07-31T13:25:36;2.83;;;1.95;;
16522;SDS011;19889;52.546;13.348;2023-07-31T13:28:03;3.88;;;2.75;;
16522;SDS011;19889;52.546;13.348;2023-07-31T13:30:32;3.90;;;2.80;;
16522;SDS011;19889;52.546;13.348;2023-07-31T13:33:00;3.85;;;2.38;;
16522;SDS011;19889;52.546;13.348;2023-07-31T13:35:27;3.65;;;2.67;;
16522;SDS011;19889;52.546;13.348;2023-07-31T13:37:56;5.82;;;2.33;;
16522;SDS011;19889;52.546;13.348;2023-07-31T13:40:24;4.10;;;2.30;;
16522;SDS011;19889;52.546;13.348;2023-07-31T13:42:51;2.25;;;2.05;;
16522;SDS011;19889;52.546;13.348;2023-07-31T13:45:20;2.92;;;2.30;;
16522;SDS011;19889;52.546;13.348;2023-07-31T13:47:50;5.10;;;1.98;;
16522;SDS011;19889;52.546;13.348;2023-07-31T13:50:17;3.15;;;2.47;;
16522;SDS011;19889;52.546;13.348;2023-07-31T13:52:46;3.35;;;2.42;;
16522;SDS011;19889;52.546;13.348;2023-07-31T13:55:13;4.15;;;2.33;;
16522;SDS011;19889;52.546;13.348;2023-07-31T13:57:41;4.85;;;2.72;;
16522;SDS011;19889;52.546;13.348;2023-07-31T14:00:09;8.75;;;5.63;;
16522;SDS011;19889;52.546;13.348;2023-07-31T14:02:37;4.13;;;3.00;;
16522;SDS011;19889;52.546;13.348;2023-07-31T14:05:06;4.60;;;2.60;;
16522;SDS011;19889;52.546;13.348;2023-07-31T14:07:35;4.70;;;3.03;;
16522;SDS011;19889;52.546;13.348;2023-07-31T14:10:02;4.53;;;2.53;;
16522;SDS011;19889;52.546;13.348;2023-07-31T14:12:30;3.00;;;2.28;;
16522;SDS011;19889;52.546;13.348;2023-07-31T14:14:58;5.90;;;2.67;;
16522;SDS011;19889;52.546;13.348;2023-07-31T14:17:26;7.28;;;2.50;;
16522;SDS011;19889;52.546;13.348;2023-07-31T14:19:54;4.43;;;2.40;;
16522;SDS011;19889;52.546;13.348;2023-07-31T14:22:28;3.92;;;2.45;;
16522;SDS011;19889;52.546;13.348;2023-07-31T14:24:55;3.47;;;2.33;;
16522;SDS011;19889;52.546;13.348;2023-07-31T14:27:23;4.05;;;3.08;;
16522;SDS011;19889;52.546;13.348;2023-07-31T14:29:50;4.22;;;2.67;;
16522;SDS011;19889;52.546;13.348;2023-07-31T14:32:17;6.30;;;2.80;;
16522;SDS011;19889;52.546;13.348;2023-07-31T14:34:44;6.63;;;3.17;;
16522;SDS011;19889;52.546;13.348;2023-07-31T14:37:11;3.88;;;2.85;;
16522;SDS011;19889;52.546;13.348;2023-07-31T14:39:40;3.92;;;2.90;;
16522;SDS011;19889;52.546;13.348;2023-07-31T14:42:08;5.90;;;3.17;;
16522;SDS011;19889;52.546;13.348;2023-07-31T14:44:36;4.32;;;3.00;;